Cliffe, United Kingdom
Current Conditions -  °F | °C
As of 1:50 PM on Wednesday 28 Jan 2015 (Local Time) from EGMC Reporting Station
Rain Showers Rain Showers  
Wind Chill: 35°   Ceiling: Unl
Heat Index: 45°   Visibility: 6mi
Dew Point: 32°   Wind: 25mph
Humidity: 61%   Direction: 270°W
Pressure: 29.47"   Gusts: NA
Location:  51.46°N, 0.5°E
Report Text: EGMC 281350Z 27022KT 9999 VCSH FEW018 07/00 Q0998 RERA
Loading
Personal Weather Stations






























Interactive Weather Map New forecast layout! Learn more

10-Day Weather Forecast

Advertisements
Track Severe Weather on mobile